Lemars, Iowa
Current Conditions -  °F | °C
As of 6:35 PM on Friday 24 Oct 2014 (Local Time) from KLRJ Reporting Station
Clear Clear  
Wind Chill: 64°   Ceiling: Unl
Heat Index: 64°   Visibility: 9mi
Dew Point: 46°   Wind: 0mph
Humidity: 52%   Direction: NA
Pressure: 29.93"   Gusts: NA
Location:  42.8179°N, 96.1854°W
Report Text: KLRJ 242335Z AUTO 00000KT 9SM CLR 18/08 A2993 RMK AO2
Loading
Personal Weather Stations






























Interactive Weather Map
Tropical Storm Tracking
New forecast layout! Learn more

10-Day Weather Forecast

Advertisements
Track Severe Weather on mobile